Phu Bai Airport
VVPB : now visible

Aeroporto :











RITROVATECI SU...

 
LOGIN :

Iscrizione | Disclaimer

   EN    FR    IT 

 









Sommario :    VFR   VFR Marginale   IFR   IFR Intensivo   IFR Molto Intensivo
Visibilità : 
Base nubi : 
>= 8 km
>= 3000ft
5 / 8 km
1000 / 3000 ft
1500m / 5 km
500 / 1000 ft
800 / 1500m
200 / 500 ft
< 800m
< 200 ft
Simboli :   Temporali  Nebbia  Neve Forte  Precipitazioni Forti  Vento > 20 kt






- Altitudine del aeroporto : 48 ft
- Codice IATA : HUI


VVPB - Phu Bai

ULTIMO METAR :
  • 011130Z VRB02KT 4500 BR SCT007 BKN040 25/24 Q1010 NOSIG

METARs OBSOLETI :
  • 011100Z 10003KT 4500 BR SCT007 BKN040 25/24 Q1010 NOSIG
  • 011030Z VRB02KT 4500 BR SCT007 BKN040 25/24 Q1010 NOSIG
  • 011000Z 01003KT 3500 BR FEW007 SCT015 BKN040 25/24 Q1010 NOSIG
  • 010930Z 33004KT 2500 BR FEW007 SCT015 BKN040 25/24 Q1010 NOSIG

TAF TAF VVPB
Valido dal 01 a 12 ore il 02 a 12 ore UTC


011100Z 0112/0212 04005KT 6000 SCT010 BKN040
TEMPO 0112/0115 4000 RA BR
TEMPO 0120/0201 3500 RA BR



MetMap, La meteo Aeronautica in un colpo d'occhio ! - Copyright ORBIFLY Dicembre 2007 - Disclaimer

ORBIFLY MET'MAP TEAM :

Programmazione e sviluppo : Alexandra Zaïnal
Concezione : Baudouin d'Aumeries
Aiuto per la programmazione : Marc-Olivier Méhu
Supporto tecnico e logistico : Manuel Goepfert
Aiuto per la traduzione : Arnaldo La Scala

Contatto : metmap@orbifly.com




FONTI E CREDITI :

   NOAA       Earth
Advisory